Aberkenfig, United Kingdom
Current Conditions -  °F | °C
As of 7:50 AM on Tuesday 21 Oct 2014 (Local Time) from EGDX Reporting Station
Broken Clouds Broken Clouds  
Wind Chill: 54°   Ceiling: 5000
Heat Index: 54°   Visibility: 6mi
Dew Point: 43°   Wind: 29mph
Humidity: 67%   Direction: 290°WNW
Pressure: 29.65"   Gusts: 44mph
Location:  51.54°N, 3.6°W
Report Text: EGDX 210650Z AUTO 29025G38KT 9999 BKN050/// 12/06 Q1004 RERA
Loading
Personal Weather Stations






























Interactive Weather Map
Tropical Storm Tracking
New forecast layout! Learn more

10-Day Weather Forecast

Advertisements
Track Severe Weather on mobile